Time;durP1;ratioP1;P1;durP2;ratioP2;P2;SDS_P1;SDS_P2;PMS_P1;PMS_P2;Temp;Humidity;BMP_temperature;BMP_pressure;BME280_temperature;BME280_humidity;BME280_pressure;Samples;Min_cycle;Max_cycle;Signal;HPM_P1;HPM_P2
2023/12/30 00:01:36;;;;;;;0.00;0.00;;;5.20;99.90;;;;;;5074041;28;20055;-85
2023/12/30 00:04:02;;;;;;;0.00;0.00;;;5.20;99.90;;;;;;5051398;28;20048;-85
2023/12/30 00:06:28;;;;;;;0.00;0.00;;;5.20;99.90;;;;;;5089274;28;20051;-85
2023/12/30 00:08:54;;;;;;;0.00;0.00;;;5.20;96.70;;;;;;5091093;28;20044;-85
2023/12/30 00:11:19;;;;;;;2.05;0.55;;;5.10;99.50;;;;;;5069151;28;20043;-85
2023/12/30 00:13:45;;;;;;;0.00;0.00;;;5.10;99.90;;;;;;5087579;28;20055;-86
2023/12/30 00:16:11;;;;;;;0.10;0.10;;;5.10;99.90;;;;;;5079727;28;20717;-86
2023/12/30 00:18:37;;;;;;;3.70;1.00;;;4.90;99.90;;;;;;5088141;28;20433;-86
2023/12/30 00:21:03;;;;;;;0.00;0.00;;;4.90;99.90;;;;;;5047701;28;20068;-86
2023/12/30 00:23:28;;;;;;;0.85;0.22;;;4.90;99.90;;;;;;5064774;28;20468;-85
2023/12/30 00:25:54;;;;;;;0.00;0.00;;;4.90;99.90;;;;;;5098148;28;20528;-85
2023/12/30 00:28:21;;;;;;;0.20;0.20;;;4.90;99.90;;;;;;5097647;28;20109;-85
2023/12/30 00:30:47;;;;;;;0.15;0.10;;;5.00;99.90;;;;;;5101442;28;20048;-85
2023/12/30 00:33:13;;;;;;;0.00;0.00;;;5.00;99.90;;;;;;5091000;28;20385;-85
2023/12/30 00:35:38;;;;;;;2.72;1.23;;;4.90;99.90;;;;;;5096082;28;20044;-85
2023/12/30 00:38:04;;;;;;;0.00;0.00;;;4.90;99.90;;;;;;5066309;28;20054;-85
2023/12/30 00:40:30;;;;;;;0.10;0.10;;;4.90;99.90;;;;;;5066272;28;20048;-85
2023/12/30 00:42:55;;;;;;;0.00;0.00;;;4.80;99.90;;;;;;5084966;28;20611;-85
2023/12/30 00:45:21;;;;;;;0.08;0.08;;;4.90;99.90;;;;;;5085112;28;20095;-85
2023/12/30 00:47:46;;;;;;;0.00;0.00;;;4.90;99.90;;;;;;5084662;28;20039;-85
2023/12/30 00:50:13;;;;;;;4.55;2.15;;;4.90;99.90;;;;;;5071464;28;20528;-85
2023/12/30 00:52:38;;;;;;;0.00;0.00;;;5.00;99.90;;;;;;5064988;28;20078;-86
2023/12/30 00:55:04;;;;;;;0.52;0.35;;;5.00;99.90;;;;;;5067047;28;20044;-85
2023/12/30 00:57:30;;;;;;;0.00;0.00;;;5.00;99.90;;;;;;5103663;28;20116;-85
2023/12/30 00:59:56;;;;;;;0.00;0.00;;;5.00;99.90;;;;;;5087535;28;20135;-85
2023/12/30 01:02:21;;;;;;;0.00;0.00;;;5.10;99.90;;;;;;5104452;28;20060;-85
2023/12/30 01:04:47;;;;;;;0.63;0.25;;;5.00;98.60;;;;;;5096012;28;20047;-85
2023/12/30 01:07:13;;;;;;;0.15;0.15;;;5.00;72.10;;;;;;5066836;28;20502;-85
2023/12/30 01:09:38;;;;;;;0.00;0.00;;;5.00;14.20;;;;;;5066437;28;20040;-85
2023/12/30 01:12:04;;;;;;;9.95;1.65;;;4.90;17.20;;;;;;5100541;28;20501;-85
2023/12/30 01:14:30;;;;;;;0.00;0.00;;;5.00;1.00;;;;;;5066964;28;20406;-85
2023/12/30 01:16:56;;;;;;;0.30;0.30;;;4.90;1.00;;;;;;5066454;28;20101;-85
2023/12/30 01:19:21;;;;;;;0.00;0.00;;;4.90;1.00;;;;;;5089980;28;20040;-85
2023/12/30 01:21:47;;;;;;;0.45;0.45;;;5.00;1.00;;;;;;5073735;28;20043;-85
2023/12/30 01:24:13;;;;;;;0.10;0.10;;;5.00;1.00;;;;;;5085468;28;20052;-85
2023/12/30 01:26:39;;;;;;;0.10;0.10;;;5.10;99.90;;;;;;5085450;28;20047;-85
2023/12/30 01:29:05;;;;;;;0.00;0.00;;;5.10;99.90;;;;;;5092741;28;20120;-85
2023/12/30 01:31:30;;;;;;;1.98;1.17;;;5.00;99.90;;;;;;5104540;28;20051;-85
2023/12/30 01:33:56;;;;;;;0.00;0.00;;;5.00;99.90;;;;;;5084141;28;20048;-85
2023/12/30 01:36:21;;;;;;;0.00;0.00;;;5.00;99.90;;;;;;5084331;28;20085;-85
2023/12/30 01:38:47;;;;;;;0.00;0.00;;;5.00;99.90;;;;;;5092434;28;20050;-85
2023/12/30 01:41:13;;;;;;;0.55;0.32;;;4.90;99.90;;;;;;5090785;28;20541;-85
2023/12/30 01:43:39;;;;;;;0.00;0.00;;;4.90;99.90;;;;;;5095816;28;20563;-85
2023/12/30 01:46:07;;;;;;;22.80;0.65;;;5.00;99.90;;;;;;5069444;28;20119;-86
2023/12/30 01:48:33;;;;;;;14.32;1.00;;;5.00;99.90;;;;;;5088311;28;20040;-85
2023/12/30 01:51:02;;;;;;;0.00;0.00;;;5.10;99.90;;;;;;5066859;28;20074;-85
2023/12/30 01:53:30;;;;;;;0.40;0.40;;;5.10;99.90;;;;;;5073888;28;20059;-85
2023/12/30 01:55:57;;;;;;;0.20;0.20;;;5.00;99.90;;;;;;5065488;28;20786;-85
2023/12/30 01:58:23;;;;;;;0.20;0.20;;;5.10;99.90;;;;;;5099257;28;20170;-85
2023/12/30 02:00:51;;;;;;;0.08;0.08;;;5.10;54.90;;;;;;5091696;28;20138;-85
2023/12/30 02:03:18;;;;;;;0.00;0.00;;;5.10;1.00;;;;;;5091765;28;20056;-86
2023/12/30 02:05:46;;;;;;;0.00;0.00;;;5.10;1.00;;;;;;5095769;28;20122;-85
2023/12/30 02:08:12;;;;;;;0.10;0.10;;;5.10;1.00;;;;;;5086128;28;20456;-85
2023/12/30 02:10:38;;;;;;;0.00;0.00;;;5.20;1.00;;;;;;5092016;28;20048;-85
2023/12/30 02:13:03;;;;;;;0.00;0.00;;;5.20;99.90;;;;;;5091042;28;20040;-85
2023/12/30 02:15:29;;;;;;;0.20;0.20;;;5.30;99.90;;;;;;5053294;28;20585;-85
2023/12/30 02:17:56;;;;;;;0.40;0.38;;;5.40;99.90;;;;;;5079634;28;20937;-85
2023/12/30 02:20:23;;;;;;;0.00;0.00;;;5.50;55.70;;;;;;5062534;28;20051;-85
2023/12/30 02:22:49;;;;;;;0.32;0.25;;;5.50;1.00;;;;;;5062845;28;20082;-85
2023/12/30 02:25:16;;;;;;;0.65;0.55;;;5.70;99.90;;;;;;5085117;28;20040;-85
2023/12/30 02:27:43;;;;;;;0.00;0.00;;;5.70;99.90;;;;;;5094535;28;20096;-85
2023/12/30 02:30:09;;;;;;;0.00;0.00;;;5.80;99.90;;;;;;5100791;28;20385;-85
2023/12/30 02:32:35;;;;;;;0.00;0.00;;;5.80;51.60;;;;;;5094568;28;20036;-85
2023/12/30 02:35:00;;;;;;;0.00;0.00;;;5.80;1.00;;;;;;5098923;28;20529;-85
2023/12/30 02:37:26;;;;;;;0.50;0.50;;;5.80;1.00;;;;;;5091187;28;20474;-85
2023/12/30 02:39:51;;;;;;;0.00;0.00;;;5.90;99.90;;;;;;5078394;28;20513;-86
2023/12/30 02:42:17;;;;;;;1.27;0.32;;;5.80;99.90;;;;;;5103249;28;20074;-85
2023/12/30 02:44:42;;;;;;;3.08;0.38;;;5.90;99.90;;;;;;5057250;28;20047;-85
2023/12/30 02:47:08;;;;;;;0.10;0.10;;;5.80;99.90;;;;;;5099815;28;20055;-85
2023/12/30 02:49:34;;;;;;;0.00;0.00;;;5.70;99.90;;;;;;5082414;28;20052;-86
2023/12/30 02:52:00;;;;;;;0.20;0.20;;;5.70;99.90;;;;;;5052941;28;20052;-85
2023/12/30 02:54:27;;;;;;;0.00;0.00;;;5.70;1.00;;;;;;5054048;28;20043;-85
2023/12/30 02:56:52;;;;;;;0.00;0.00;;;5.80;99.90;;;;;;5064358;28;20059;-85
2023/12/30 02:59:18;;;;;;;0.85;0.52;;;6.10;99.90;;;;;;5073755;28;20048;-85
2023/12/30 03:01:43;;;;;;;0.00;0.00;;;6.20;7.90;;;;;;5070297;28;20056;-85
2023/12/30 03:04:09;;;;;;;0.47;0.47;;;6.30;1.00;;;;;;5049337;28;20486;-85
2023/12/30 03:06:35;;;;;;;0.10;0.10;;;6.30;99.90;;;;;;5082388;28;20127;-85
2023/12/30 03:09:01;;;;;;;0.00;0.00;;;6.40;99.90;;;;;;5092573;28;20485;-85
2023/12/30 03:11:27;;;;;;;0.00;0.00;;;6.50;99.90;;;;;;5082249;28;20467;-85
2023/12/30 03:13:53;;;;;;;0.82;0.80;;;6.50;99.90;;;;;;5079641;28;20056;-86
2023/12/30 03:16:19;;;;;;;0.35;0.35;;;6.60;99.90;;;;;;5061752;28;20040;-85
2023/12/30 03:18:46;;;;;;;0.00;0.00;;;6.60;99.90;;;;;;5102076;28;20040;-86
2023/12/30 03:21:17;;;;;;;0.00;0.00;;;6.60;99.90;;;;;;5067754;28;20490;-85
2023/12/30 03:23:42;;;;;;;0.00;0.00;;;6.60;99.90;;;;;;5094391;28;20055;-85
2023/12/30 03:26:09;;;;;;;0.20;0.20;;;6.60;99.90;;;;;;5092088;28;20039;-85
2023/12/30 03:28:35;;;;;;;1.85;0.93;;;6.70;94.30;;;;;;5068622;28;20058;-85
2023/12/30 03:31:02;;;;;;;0.15;0.15;;;6.70;68.10;;;;;;5092807;28;20040;-86
2023/12/30 03:33:28;;;;;;;0.22;0.22;;;6.60;84.30;;;;;;5094740;28;20047;-85
2023/12/30 03:35:54;;;;;;;3.28;0.15;;;6.60;99.90;;;;;;5067608;28;20109;-86
2023/12/30 03:38:20;;;;;;;0.00;0.00;;;6.50;89.40;;;;;;5100355;28;20704;-85
2023/12/30 03:40:45;;;;;;;0.00;0.00;;;6.50;71.20;;;;;;5096255;28;20043;-85
2023/12/30 03:43:13;;;;;;;0.20;0.20;;;6.50;23.60;;;;;;5069724;28;20035;-85
2023/12/30 03:45:39;;;;;;;0.57;0.55;;;6.20;56.10;;;;;;5072272;28;20504;-86
2023/12/30 03:48:07;;;;;;;0.00;0.00;;;6.10;91.50;;;;;;5067707;28;20123;-85
2023/12/30 03:50:33;;;;;;;0.10;0.10;;;5.90;99.90;;;;;;5097853;28;20043;-86
2023/12/30 03:52:58;;;;;;;0.15;0.15;;;5.80;99.90;;;;;;5065905;28;20044;-85
2023/12/30 03:55:24;;;;;;;0.00;0.00;;;5.90;99.90;;;;;;5047961;28;20146;-85
2023/12/30 03:57:50;;;;;;;0.35;0.35;;;5.90;99.90;;;;;;5050762;28;20055;-85
2023/12/30 04:00:16;;;;;;;0.65;0.65;;;5.80;99.90;;;;;;5100720;28;20048;-85
2023/12/30 04:02:42;;;;;;;0.00;0.00;;;5.80;99.90;;;;;;5061693;28;20508;-85
2023/12/30 04:05:07;;;;;;;0.00;0.00;;;5.70;99.90;;;;;;5072671;28;20043;-86
2023/12/30 04:07:33;;;;;;;0.00;0.00;;;5.60;99.90;;;;;;5106008;28;20481;-85
2023/12/30 04:09:59;;;;;;;0.00;0.00;;;5.50;99.90;;;;;;5070145;28;20040;-85
2023/12/30 04:12:25;;;;;;;0.38;0.38;;;5.50;99.90;;;;;;5105346;28;20124;-86
2023/12/30 04:14:51;;;;;;;0.10;0.10;;;5.50;99.90;;;;;;5096189;28;20660;-85
2023/12/30 04:17:17;;;;;;;0.55;0.55;;;5.50;99.90;;;;;;5101984;28;20093;-86
2023/12/30 04:19:43;;;;;;;0.00;0.00;;;5.60;99.90;;;;;;5085355;28;20044;-85
2023/12/30 04:22:08;;;;;;;0.00;0.00;;;5.70;99.90;;;;;;5093379;28;20467;-85
2023/12/30 04:24:34;;;;;;;1.75;0.80;;;5.90;99.90;;;;;;5085046;28;20521;-85
2023/12/30 04:26:59;;;;;;;0.00;0.00;;;6.00;99.90;;;;;;5101294;28;20040;-85
2023/12/30 04:29:26;;;;;;;0.10;0.10;;;6.10;99.90;;;;;;5087279;28;20278;-86
2023/12/30 04:31:51;;;;;;;1.55;0.30;;;6.20;99.90;;;;;;5103057;28;20051;-85
2023/12/30 04:34:17;;;;;;;2.42;0.70;;;6.30;96.10;;;;;;5093147;28;20028;-86
2023/12/30 04:36:43;;;;;;;3.60;1.65;;;6.30;81.40;;;;;;5084792;28;20454;-86
2023/12/30 04:39:08;;;;;;;0.60;0.30;;;6.30;88.30;;;;;;5066510;28;20489;-85
2023/12/30 04:41:35;;;;;;;0.15;0.15;;;6.40;33.50;;;;;;5101662;28;20389;-85
2023/12/30 04:44:01;;;;;;;0.47;0.47;;;6.40;50.60;;;;;;5089679;28;20052;-86
2023/12/30 04:46:26;;;;;;;0.45;0.30;;;6.40;22.50;;;;;;5088440;28;20459;-85
2023/12/30 04:48:54;;;;;;;0.05;0.05;;;6.40;63.10;;;;;;5092626;28;20122;-85
2023/12/30 04:51:20;;;;;;;1.35;0.45;;;6.40;21.50;;;;;;5090874;28;20036;-85
2023/12/30 04:53:46;;;;;;;5.28;2.83;;;6.50;13.20;;;;;;5104933;28;20104;-86
2023/12/30 04:56:18;;;;;;;4.68;2.17;;;6.50;1.00;;;;;;5094903;28;20878;-85
2023/12/30 04:58:44;;;;;;;0.00;0.00;;;6.50;1.00;;;;;;5093046;28;20116;-85
2023/12/30 05:01:11;;;;;;;0.00;0.00;;;6.40;1.00;;;;;;5087732;28;20099;-85
2023/12/30 05:03:37;;;;;;;33.22;1.45;;;6.40;8.80;;;;;;5070311;28;20052;-85
2023/12/30 05:06:02;;;;;;;0.00;0.00;;;6.30;17.50;;;;;;5101044;28;20125;-85
2023/12/30 05:08:29;;;;;;;0.00;0.00;;;6.30;22.90;;;;;;5085417;28;20401;-85
2023/12/30 05:10:55;;;;;;;4.28;0.75;;;6.20;51.40;;;;;;5093193;28;20069;-85
2023/12/30 05:13:21;;;;;;;0.00;0.00;;;6.20;26.20;;;;;;5095603;28;20044;-85
2023/12/30 05:15:49;;;;;;;0.00;0.00;;;6.20;24.90;;;;;;5087971;28;20123;-85
2023/12/30 05:18:15;;;;;;;0.22;0.22;;;6.10;79.80;;;;;;5067310;28;20048;-85
2023/12/30 05:20:41;;;;;;;0.00;0.00;;;6.10;73.80;;;;;;5070925;28;20050;-85
2023/12/30 05:23:07;;;;;;;1.23;1.13;;;6.10;78.20;;;;;;5092667;28;20555;-85
2023/12/30 05:25:33;;;;;;;0.65;0.65;;;6.00;81.00;;;;;;5061813;28;20052;-85
2023/12/30 05:27:58;;;;;;;0.68;0.68;;;5.90;99.90;;;;;;5079099;28;20494;-85
2023/12/30 05:30:24;;;;;;;0.00;0.00;;;5.90;98.10;;;;;;5093835;28;20123;-85
2023/12/30 05:32:49;;;;;;;0.00;0.00;;;5.90;99.90;;;;;;5099733;28;20048;-86
2023/12/30 05:35:15;;;;;;;0.10;0.10;;;5.80;99.90;;;;;;5091700;28;20090;-85
2023/12/30 05:37:41;;;;;;;0.00;0.00;;;5.80;99.90;;;;;;5091904;28;20590;-85
2023/12/30 05:40:08;;;;;;;1.38;1.17;;;5.80;99.90;;;;;;5063915;28;20052;-86
2023/12/30 05:42:34;;;;;;;0.00;0.00;;;5.90;99.90;;;;;;5101807;28;20051;-85
2023/12/30 05:45:00;;;;;;;0.47;0.45;;;5.80;99.90;;;;;;5091486;28;20459;-85
2023/12/30 05:47:25;;;;;;;0.00;0.00;;;5.80;99.90;;;;;;5088286;28;20035;-85
2023/12/30 05:49:51;;;;;;;0.00;0.00;;;5.80;99.90;;;;;;5094390;28;20495;-85
2023/12/30 05:52:16;;;;;;;0.63;0.63;;;5.80;99.90;;;;;;5085395;28;20059;-85
2023/12/30 05:54:44;;;;;;;0.00;0.00;;;5.80;99.90;;;;;;5092245;28;20054;-85
2023/12/30 05:57:09;;;;;;;0.35;0.35;;;5.80;99.90;;;;;;5099006;28;20059;-85
2023/12/30 05:59:35;;;;;;;0.00;0.00;;;5.90;99.90;;;;;;5072493;28;20512;-86
2023/12/30 06:02:01;;;;;;;0.52;0.52;;;6.00;99.90;;;;;;5084692;28;20098;-86
2023/12/30 06:04:26;;;;;;;0.63;0.63;;;6.00;99.90;;;;;;5070786;28;20073;-86
2023/12/30 06:06:52;;;;;;;0.00;0.00;;;6.10;99.90;;;;;;5045906;28;20332;-85
2023/12/30 06:09:17;;;;;;;0.00;0.00;;;6.10;99.90;;;;;;5064721;28;20132;-85
2023/12/30 06:11:43;;;;;;;0.30;0.30;;;6.10;99.90;;;;;;5064483;28;20044;-85
2023/12/30 06:14:09;;;;;;;0.00;0.00;;;6.00;99.90;;;;;;5084501;28;20082;-85
2023/12/30 06:16:34;;;;;;;0.00;0.00;;;6.00;99.90;;;;;;5079004;28;20054;-86
2023/12/30 06:19:00;;;;;;;0.00;0.00;;;5.90;99.90;;;;;;5084831;28;20047;-86
2023/12/30 06:21:25;;;;;;;0.00;0.00;;;5.80;99.90;;;;;;5072834;28;20081;-85
2023/12/30 06:23:51;;;;;;;1.13;0.85;;;5.70;99.90;;;;;;5088853;28;20040;-85
2023/12/30 06:26:17;;;;;;;0.00;0.00;;;5.70;99.90;;;;;;5090803;28;20096;-85
2023/12/30 06:28:42;;;;;;;0.93;0.68;;;5.80;99.90;;;;;;5090276;28;20104;-85
2023/12/30 06:31:08;;;;;;;0.00;0.00;;;5.80;99.90;;;;;;5075996;28;20043;-85
2023/12/30 06:33:33;;;;;;;0.00;0.00;;;5.80;99.90;;;;;;5066831;28;20082;-85
2023/12/30 06:35:59;;;;;;;0.00;0.00;;;5.70;99.90;;;;;;5068212;28;20052;-85
2023/12/30 06:38:24;;;;;;;0.00;0.00;;;5.60;99.90;;;;;;5091118;28;20553;-85
2023/12/30 06:40:50;;;;;;;2.72;1.45;;;5.50;1.00;;;;;;5082939;28;20059;-86
2023/12/30 06:43:16;;;;;;;8.02;1.02;;;5.40;1.00;;;;;;5090588;28;20129;-86
2023/12/30 06:45:42;;;;;;;0.00;0.00;;;5.40;14.00;;;;;;5059945;28;20064;-86
2023/12/30 06:48:08;;;;;;;3.25;1.75;;;5.30;95.30;;;;;;5096582;28;20071;-85
2023/12/30 06:50:34;;;;;;;1.75;1.17;;;5.30;99.90;;;;;;5093882;28;20132;-86
2023/12/30 06:53:00;;;;;;;0.80;0.63;;;5.40;99.90;;;;;;5070722;28;20406;-86
2023/12/30 06:55:25;;;;;;;0.00;0.00;;;5.40;99.90;;;;;;5086097;28;20121;-85
2023/12/30 06:57:51;;;;;;;0.90;0.57;;;5.30;99.90;;;;;;5090757;28;20039;-85
2023/12/30 07:00:17;;;;;;;0.00;0.00;;;5.30;99.90;;;;;;5095425;28;20469;-86
2023/12/30 07:02:44;;;;;;;0.45;0.43;;;5.30;99.90;;;;;;5094015;28;20138;-85
2023/12/30 07:05:10;;;;;;;0.00;0.00;;;5.40;99.90;;;;;;5054081;28;20650;-85
2023/12/30 07:07:36;;;;;;;0.00;0.00;;;5.40;99.90;;;;;;5075339;28;20052;-86
2023/12/30 07:10:04;;;;;;;0.13;0.13;;;5.40;99.90;;;;;;5102722;28;20544;-85
2023/12/30 07:12:29;;;;;;;0.00;0.00;;;5.40;99.90;;;;;;5093977;28;20128;-86
2023/12/30 07:14:55;;;;;;;0.73;0.63;;;5.30;99.90;;;;;;5093141;28;20083;-86
2023/12/30 07:17:20;;;;;;;0.00;0.00;;;5.30;99.90;;;;;;5045287;28;20045;-85
2023/12/30 07:19:46;;;;;;;0.00;0.00;;;5.30;99.90;;;;;;5086183;28;20139;-86
2023/12/30 07:22:12;;;;;;;0.00;0.00;;;5.30;99.90;;;;;;5092008;28;20507;-86
2023/12/30 07:24:38;;;;;;;0.47;0.22;;;5.30;99.90;;;;;;5086248;28;20082;-85
2023/12/30 07:27:04;;;;;;;0.35;0.20;;;5.30;99.90;;;;;;5093500;28;20140;-86
2023/12/30 07:29:30;;;;;;;0.00;0.00;;;5.30;1.00;;;;;;5093176;28;20044;-85
2023/12/30 07:31:56;;;;;;;0.00;0.00;;;5.40;99.90;;;;;;5093183;28;20040;-85
2023/12/30 07:34:21;;;;;;;0.00;0.00;;;5.40;99.90;;;;;;5087393;28;20408;-86
2023/12/30 07:36:48;;;;;;;6.97;0.90;;;5.40;99.90;;;;;;5048707;28;20044;-86
2023/12/30 07:39:13;;;;;;;0.00;0.00;;;5.40;99.90;;;;;;5063647;28;20469;-85
2023/12/30 07:41:39;;;;;;;0.00;0.00;;;5.50;99.90;;;;;;5101558;28;20120;-85
2023/12/30 07:44:05;;;;;;;0.70;0.70;;;5.50;99.90;;;;;;5086347;28;20174;-86
2023/12/30 07:46:31;;;;;;;0.00;0.00;;;5.40;99.90;;;;;;5079413;28;20055;-86
2023/12/30 07:48:57;;;;;;;0.28;0.28;;;5.40;99.90;;;;;;5094083;28;20067;-85
2023/12/30 07:51:23;;;;;;;0.00;0.00;;;5.40;99.90;;;;;;5085762;28;20222;-85
2023/12/30 07:53:49;;;;;;;0.47;0.47;;;6.70;99.90;;;;;;5098366;28;20477;-85
2023/12/30 07:56:16;;;;;;;0.00;0.00;;;5.50;99.90;;;;;;5087475;28;20039;-86
2023/12/30 07:58:42;;;;;;;4.47;2.05;;;5.40;99.90;;;;;;5093425;28;20386;-86
2023/12/30 08:01:08;;;;;;;0.00;0.00;;;5.50;99.90;;;;;;5092541;28;20427;-85
2023/12/30 08:03:34;;;;;;;0.00;0.00;;;5.50;99.90;;;;;;5076696;28;20500;-86
2023/12/30 08:05:59;;;;;;;0.00;0.00;;;5.60;99.90;;;;;;5061008;28;20059;-85
2023/12/30 08:08:25;;;;;;;0.00;0.00;;;5.70;99.90;;;;;;5070916;28;20135;-85
2023/12/30 08:10:50;;;;;;;0.82;0.65;;;5.80;99.90;;;;;;5090441;28;20083;-86
2023/12/30 08:13:16;;;;;;;0.00;0.00;;;5.90;99.90;;;;;;5060033;28;20131;-86
2023/12/30 08:15:42;;;;;;;0.00;0.00;;;5.90;99.90;;;;;;5044120;28;20067;-85
2023/12/30 08:18:08;;;;;;;0.00;0.00;;;5.90;99.90;;;;;;5082945;28;20052;-86
2023/12/30 08:20:33;;;;;;;1.63;1.45;;;5.90;99.90;;;;;;5086662;28;20036;-86
2023/12/30 08:22:59;;;;;;;0.00;0.00;;;5.90;99.90;;;;;;5057840;28;20495;-85
2023/12/30 08:25:24;;;;;;;2.60;0.90;;;5.80;99.90;;;;;;5079899;28;20040;-86
2023/12/30 08:27:50;;;;;;;0.00;0.00;;;5.80;99.90;;;;;;5075980;28;20076;-85
2023/12/30 08:30:16;;;;;;;34.10;1.10;;;5.80;99.90;;;;;;5057512;28;20044;-86
2023/12/30 08:32:41;;;;;;;0.43;0.43;;;5.70;99.90;;;;;;5070068;28;20060;-86
2023/12/30 08:35:08;;;;;;;4.18;2.25;;;5.70;99.90;;;;;;5074067;28;20049;-86
2023/12/30 08:37:35;;;;;;;4.38;0.98;;;5.60;99.90;;;;;;5085744;28;20071;-86
2023/12/30 08:40:05;;;;;;;0.47;0.47;;;5.60;99.90;;;;;;5065253;28;20083;-85
2023/12/30 08:42:34;;;;;;;0.00;0.00;;;5.60;99.90;;;;;;5075599;28;20131;-86
2023/12/30 08:45:00;;;;;;;0.00;0.00;;;5.50;99.90;;;;;;5077513;28;20064;-86
2023/12/30 08:47:28;;;;;;;0.00;0.00;;;5.50;99.90;;;;;;5077473;28;20126;-86
2023/12/30 08:49:54;;;;;;;0.00;0.00;;;5.50;99.90;;;;;;5077204;28;20073;-86
2023/12/30 08:52:19;;;;;;;3.10;2.30;;;5.50;99.90;;;;;;5080708;28;20482;-86
2023/12/30 08:54:46;;;;;;;0.08;0.08;;;5.50;99.90;;;;;;5056848;28;20055;-86
2023/12/30 08:57:12;;;;;;;0.38;0.38;;;5.60;99.90;;;;;;5072648;28;20047;-86
2023/12/30 08:59:38;;;;;;;1.88;0.80;;;5.50;99.90;;;;;;5078809;28;20040;-85
2023/12/30 09:02:04;;;;;;;7.38;1.10;;;5.50;99.90;;;;;;5080656;28;20048;-85
2023/12/30 09:04:30;;;;;;;0.00;0.00;;;5.60;99.90;;;;;;5088672;28;20125;-86
2023/12/30 09:06:56;;;;;;;0.38;0.38;;;5.60;99.90;;;;;;5080642;28;20047;-86
2023/12/30 09:09:21;;;;;;;0.47;0.15;;;5.70;99.90;;;;;;5075994;28;20035;-85
2023/12/30 09:11:47;;;;;;;0.05;0.05;;;5.80;99.90;;;;;;5070356;28;20075;-86
2023/12/30 09:14:13;;;;;;;0.00;0.00;;;5.80;99.90;;;;;;5051404;28;20037;-86
2023/12/30 09:16:39;;;;;;;0.00;0.00;;;5.90;99.90;;;;;;5044798;28;20044;-86
2023/12/30 09:19:04;;;;;;;0.00;0.00;;;6.00;98.90;;;;;;5044124;28;20072;-85
2023/12/30 09:21:30;;;;;;;0.00;0.00;;;6.10;14.70;;;;;;5044206;28;20135;-86
2023/12/30 09:23:57;;;;;;;0.00;0.00;;;6.10;1.00;;;;;;5089853;28;20051;-85
2023/12/30 09:26:22;;;;;;;2.88;0.77;;;6.10;1.00;;;;;;5082946;28;20048;-86
2023/12/30 09:28:48;;;;;;;0.00;0.00;;;6.10;1.00;;;;;;5091154;28;20349;-86
2023/12/30 09:31:13;;;;;;;0.00;0.00;;;7.10;1.00;;;;;;5080860;28;20775;-86
2023/12/30 09:33:39;;;;;;;0.00;0.00;;;6.10;1.00;;;;;;5069882;28;20054;-86
2023/12/30 09:36:06;;;;;;;0.20;0.20;;;6.10;1.00;;;;;;5091080;28;20523;-86
2023/12/30 09:38:31;;;;;;;0.00;0.00;;;6.20;1.00;;;;;;5091503;28;20055;-86
2023/12/30 09:40:57;;;;;;;0.00;0.00;;;6.20;99.90;;;;;;5082137;28;20044;-86
2023/12/30 09:43:25;;;;;;;0.00;0.00;;;6.30;1.00;;;;;;5099791;28;20035;-86
2023/12/30 09:45:52;;;;;;;1.02;0.50;;;6.30;1.00;;;;;;5102383;28;20039;-86
2023/12/30 09:48:20;;;;;;;0.00;0.00;;;7.00;99.90;;;;;;5100442;28;20122;-86
2023/12/30 09:50:49;;;;;;;0.45;0.45;;;6.20;99.90;;;;;;5083977;28;20044;-86
2023/12/30 09:53:16;;;;;;;0.75;0.52;;;6.30;99.90;;;;;;5091001;28;20044;-86
2023/12/30 09:55:44;;;;;;;0.00;0.00;;;6.30;99.90;;;;;;5083397;28;20036;-86
2023/12/30 09:58:10;;;;;;;0.55;0.40;;;6.30;99.90;;;;;;5088334;28;20489;-86
2023/12/30 10:00:41;;;;;;;0.00;0.00;;;6.40;99.90;;;;;;5081978;28;20048;-86
2023/12/30 10:03:07;;;;;;;0.00;0.00;;;6.40;99.90;;;;;;5085865;28;20154;-86
2023/12/30 10:05:33;;;;;;;0.00;0.00;;;6.50;99.90;;;;;;5084723;28;20367;-86
2023/12/30 10:07:59;;;;;;;0.28;0.28;;;6.50;1.00;;;;;;5091307;28;20477;-86
2023/12/30 10:10:43;;;;;;;0.10;0.10;;;6.50;1.00;;;;;;5063032;28;20455;-86
2023/12/30 10:13:10;;;;;;;0.20;0.20;;;6.50;1.00;;;;;;5089771;28;20047;-86
2023/12/30 10:15:36;;;;;;;0.00;0.00;;;6.50;1.00;;;;;;5063156;28;20048;-86
2023/12/30 10:18:04;;;;;;;0.00;0.00;;;6.50;1.00;;;;;;5062580;28;20152;-86
2023/12/30 10:20:30;;;;;;;0.10;0.10;;;6.50;1.00;;;;;;5062208;28;20063;-85
2023/12/30 10:22:56;;;;;;;0.47;0.32;;;6.50;99.90;;;;;;5063489;28;20044;-86
2023/12/30 10:25:21;;;;;;;0.52;0.45;;;6.40;1.00;;;;;;5084078;28;20044;-86
2023/12/30 10:27:48;;;;;;;0.00;0.00;;;6.40;1.00;;;;;;5084870;28;20040;-86
2023/12/30 10:30:20;;;;;;;0.00;0.00;;;6.30;1.00;;;;;;5083334;28;20047;-86
2023/12/30 10:32:47;;;;;;;0.00;0.00;;;6.30;1.00;;;;;;5087958;28;20047;-86
2023/12/30 10:35:15;;;;;;;0.00;0.00;;;6.30;1.00;;;;;;5080120;28;20147;-86
2023/12/30 10:37:42;;;;;;;1.25;1.08;;;6.30;1.00;;;;;;5080302;28;20043;-86
2023/12/30 10:40:09;;;;;;;2.30;0.75;;;6.20;1.00;;;;;;5088117;28;20042;-86
2023/12/30 10:42:36;;;;;;;0.20;0.20;;;6.20;1.00;;;;;;5063157;28;20044;-86
2023/12/30 10:45:01;;;;;;;3.20;0.98;;;6.20;1.00;;;;;;5078255;28;20424;-86
2023/12/30 10:47:28;;;;;;;0.57;0.55;;;6.20;1.00;;;;;;5062458;28;20052;-86
2023/12/30 10:50:04;;;;;;;0.10;0.10;;;6.40;1.00;;;;;;5092613;28;20048;-86
2023/12/30 10:52:31;;;;;;;;;;;6.40;1.00;;;;;;5100546;28;20489;-86
2023/12/30 10:55:10;;;;;;;0.00;0.00;;;6.40;1.00;;;;;;5092298;28;19941;-86
2023/12/30 10:57:37;;;;;;;0.65;0.60;;;6.60;1.00;;;;;;5092607;28;20067;-86
2023/12/30 11:00:09;;;;;;;3.15;0.98;;;6.70;99.90;;;;;;5079181;28;20055;-86
2023/12/30 11:02:38;;;;;;;0.22;0.22;;;6.70;99.90;;;;;;5089364;28;20059;-86
2023/12/30 11:05:07;;;;;;;0.08;0.08;;;6.70;99.90;;;;;;5062464;28;20047;-86
2023/12/30 11:07:33;;;;;;;0.65;0.65;;;6.80;99.90;;;;;;5075466;28;20048;-86
2023/12/30 11:09:59;;;;;;;0.00;0.00;;;6.90;99.90;;;;;;5062337;28;20052;-86
2023/12/30 11:12:30;;;;;;;0.20;0.10;;;7.00;99.90;;;;;;5095263;28;20405;-86
2023/12/30 11:15:00;;;;;;;9.23;1.55;;;7.20;99.90;;;;;;5098050;28;20086;-85
2023/12/30 11:17:35;;;;;;;0.00;0.00;;;7.30;99.90;;;;;;5060710;28;20044;-85
2023/12/30 11:20:27;;;;;;;0.00;0.00;;;7.40;99.90;;;;;;5052211;28;20486;-86
2023/12/30 11:22:54;;;;;;;0.20;0.20;;;7.30;99.90;;;;;;5097425;28;20123;-86
2023/12/30 11:25:20;;;;;;;0.13;0.13;;;7.30;99.90;;;;;;5081310;28;20417;-86
2023/12/30 11:27:48;;;;;;;0.00;0.00;;;7.30;99.90;;;;;;5089306;28;20048;-85
2023/12/30 11:30:17;;;;;;;0.05;0.05;;;7.30;99.90;;;;;;5081035;28;20380;-85
2023/12/30 11:32:44;;;;;;;1.65;0.52;;;7.30;99.90;;;;;;5089238;28;20071;-85
2023/12/30 11:35:12;;;;;;;0.20;0.20;;;7.30;99.90;;;;;;5097167;28;20052;-86
2023/12/30 11:37:43;;;;;;;0.00;0.00;;;7.40;99.90;;;;;;5061110;28;20041;-86
2023/12/30 11:40:17;;;;;;;0.52;0.20;;;7.40;99.90;;;;;;5088890;28;20042;-86
2023/12/30 11:42:43;;;;;;;0.90;0.47;;;7.40;99.90;;;;;;5092880;28;20051;-86
2023/12/30 11:45:10;;;;;;;1.15;1.05;;;7.50;67.50;;;;;;5066451;28;20500;-86
2023/12/30 11:47:36;;;;;;;0.00;0.00;;;7.60;99.10;;;;;;5065565;28;20048;-85
2023/12/30 11:50:07;;;;;;;0.98;0.45;;;7.60;65.30;;;;;;5071543;28;20032;-85
2023/12/30 11:52:36;;;;;;;0.17;0.17;;;7.60;12.60;;;;;;5076922;28;20400;-86
2023/12/30 11:55:02;;;;;;;1.13;0.60;;;7.60;8.90;;;;;;5095332;28;20130;-86
2023/12/30 11:57:28;;;;;;;0.00;0.00;;;7.60;61.30;;;;;;5066057;28;20491;-85
2023/12/30 11:59:53;;;;;;;6.03;0.90;;;7.60;61.90;;;;;;5091466;28;20048;-85
2023/12/30 12:02:21;;;;;;;5.07;1.27;;;7.60;55.30;;;;;;5065376;28;20536;-86
2023/12/30 12:04:47;;;;;;;0.00;0.00;;;7.60;26.70;;;;;;5064740;28;20511;-85
2023/12/30 12:07:12;;;;;;;0.00;0.00;;;7.60;24.20;;;;;;5052276;28;20040;-85
2023/12/30 12:09:40;;;;;;;0.00;0.00;;;7.60;21.20;;;;;;5088498;28;20504;-86
2023/12/30 12:12:06;;;;;;;0.00;0.00;;;7.50;26.70;;;;;;5091690;28;20420;-85
2023/12/30 12:14:32;;;;;;;0.00;0.00;;;7.40;43.60;;;;;;5097427;28;20057;-86
2023/12/30 12:17:02;;;;;;;0.03;0.00;;;8.20;23.30;;;;;;5094166;28;20267;-85
2023/12/30 12:19:28;;;;;;;0.00;0.00;;;7.50;44.10;;;;;;5091159;28;20127;-86
2023/12/30 12:21:59;;;;;;;0.00;0.00;;;7.60;88.70;;;;;;5083151;28;20127;-86
2023/12/30 12:24:25;;;;;;;0.00;0.00;;;7.60;99.90;;;;;;5070358;28;20122;-86
2023/12/30 12:26:52;;;;;;;1.27;0.88;;;7.60;99.90;;;;;;5075043;28;20155;-85
2023/12/30 12:29:18;;;;;;;2.50;0.85;;;7.70;99.90;;;;;;5087785;28;20058;-86
2023/12/30 12:31:47;;;;;;;0.43;0.35;;;7.80;99.90;;;;;;5085034;28;20394;-86
2023/12/30 12:34:23;;;;;;;0.00;0.00;;;7.90;99.90;;;;;;5093548;28;20046;-85
2023/12/30 12:36:49;;;;;;;0.00;0.00;;;7.90;99.90;;;;;;5087874;28;20039;-86
2023/12/30 12:39:17;;;;;;;0.00;0.00;;;8.00;99.90;;;;;;5054813;28;20044;-86
2023/12/30 12:41:42;;;;;;;3.42;0.28;;;8.00;99.90;;;;;;5094542;28;20070;-85
2023/12/30 12:44:08;;;;;;;0.15;0.05;;;8.00;99.40;;;;;;5087585;28;20040;-86
2023/12/30 12:46:34;;;;;;;0.25;0.25;;;7.90;99.90;;;;;;5093184;28;20504;-86
2023/12/30 12:48:59;;;;;;;0.50;0.50;;;7.90;99.90;;;;;;5076396;28;20516;-85
2023/12/30 12:51:26;;;;;;;20.02;1.38;;;8.00;99.90;;;;;;5090843;28;20495;-85
2023/12/30 12:53:52;;;;;;;0.25;0.25;;;8.00;99.90;;;;;;5091043;28;20048;-86